createdAt,value
2023-04-21T00:01:40.915Z,83.80
2023-04-21T00:04:10.031Z,83.70
2023-04-21T00:06:41.574Z,84.00
2023-04-21T00:09:10.954Z,84.20
2023-04-21T00:11:40.134Z,84.00
2023-04-21T00:17:03.267Z,84.10
2023-04-21T00:19:31.517Z,84.40
2023-04-21T00:22:01.228Z,84.40
2023-04-21T00:24:29.161Z,84.50
2023-04-21T00:26:57.082Z,84.80
2023-04-21T00:29:25.207Z,84.90
2023-04-21T00:31:53.191Z,85.30
2023-04-21T00:34:21.131Z,85.50
2023-04-21T00:36:49.181Z,85.80
2023-04-21T00:39:18.966Z,85.80
2023-04-21T00:41:47.248Z,85.90
2023-04-21T00:44:15.340Z,86.10
2023-04-21T00:46:43.765Z,86.10
2023-04-21T00:49:13.189Z,86.20
2023-04-21T00:51:41.470Z,86.20
2023-04-21T00:54:13.093Z,86.30
2023-04-21T00:56:42.692Z,86.30
2023-04-21T00:59:10.974Z,86.10
2023-04-21T01:01:40.155Z,86.00
2023-04-21T01:04:10.658Z,86.10
2023-04-21T01:06:39.446Z,85.80
2023-04-21T01:09:07.320Z,85.60
2023-04-21T01:11:35.527Z,85.50
2023-04-21T01:14:05.031Z,85.60
2023-04-21T01:16:33.685Z,85.70
2023-04-21T01:19:01.773Z,85.70
2023-04-21T01:21:31.930Z,85.60
2023-04-21T01:24:01.337Z,85.20
2023-04-21T01:26:29.382Z,85.20
2023-04-21T01:28:58.842Z,85.00
2023-04-21T01:31:27.353Z,84.70
2023-04-21T01:33:55.464Z,84.70
2023-04-21T01:36:23.794Z,84.60
2023-04-21T01:38:51.709Z,84.50
2023-04-21T01:41:21.065Z,84.40
2023-04-21T01:43:49.291Z,84.40
2023-04-21T01:46:20.289Z,84.50
2023-04-21T01:48:48.330Z,84.40
2023-04-21T01:51:16.217Z,84.30
2023-04-21T01:53:44.116Z,84.30
2023-04-21T01:56:15.459Z,84.30
2023-04-21T01:58:44.890Z,84.00
2023-04-21T02:01:12.829Z,84.10
2023-04-21T02:03:40.966Z,84.00
2023-04-21T02:06:09.141Z,84.00
2023-04-21T02:08:37.269Z,83.80
2023-04-21T02:11:05.568Z,83.80
2023-04-21T02:13:33.482Z,83.70
2023-04-21T02:16:12.549Z,83.60
2023-04-21T02:18:41.664Z,83.60
2023-04-21T02:21:10.034Z,83.50
2023-04-21T02:23:38.178Z,83.70
2023-04-21T02:26:06.385Z,83.40
2023-04-21T02:28:34.669Z,83.40
2023-04-21T02:31:04.127Z,83.50
2023-04-21T02:33:32.146Z,83.50
2023-04-21T02:36:00.164Z,83.30
2023-04-21T02:38:28.065Z,83.20
2023-04-21T02:40:55.928Z,83.10
2023-04-21T02:43:23.810Z,83.10
2023-04-21T02:45:52.332Z,83.20
2023-04-21T02:48:23.244Z,83.20
2023-04-21T02:50:53.046Z,82.90
2023-04-21T02:53:21.364Z,82.80
2023-04-21T02:55:49.821Z,82.90
2023-04-21T02:58:18.173Z,82.80
2023-04-21T03:00:46.336Z,82.80
2023-04-21T03:03:16.682Z,82.70
2023-04-21T03:05:46.328Z,82.90
2023-04-21T03:08:14.318Z,82.80
2023-04-21T03:10:42.600Z,82.60
2023-04-21T03:13:10.664Z,82.50
2023-04-21T03:15:38.754Z,82.50
2023-04-21T03:18:06.929Z,82.60
2023-04-21T03:20:34.872Z,82.70
2023-04-21T03:23:04.355Z,82.60
2023-04-21T03:25:32.317Z,82.80
2023-04-21T03:28:00.374Z,82.60
2023-04-21T03:30:28.761Z,82.50
2023-04-21T03:32:56.704Z,82.60
2023-04-21T03:35:24.622Z,82.60
2023-04-21T03:37:52.497Z,82.60
2023-04-21T03:40:21.827Z,82.70
2023-04-21T03:42:49.729Z,82.60
2023-04-21T03:45:19.783Z,82.80
2023-04-21T03:47:47.720Z,82.70
2023-04-21T03:50:15.698Z,82.70
2023-04-21T03:52:43.556Z,82.80
2023-04-21T03:55:12.035Z,82.50
2023-04-21T03:57:42.274Z,82.80
2023-04-21T04:00:11.565Z,82.60
2023-04-21T04:02:39.786Z,82.70
2023-04-21T04:05:08.996Z,82.70
2023-04-21T04:07:37.417Z,82.40
2023-04-21T04:10:05.963Z,82.70
2023-04-21T04:12:34.103Z,82.60
2023-04-21T04:15:03.850Z,82.50
2023-04-21T04:17:31.768Z,82.70
2023-04-21T04:19:59.804Z,82.90
2023-04-21T04:22:27.749Z,82.80
2023-04-21T04:24:57.378Z,82.60
2023-04-21T04:27:25.445Z,82.70
2023-04-21T04:29:54.156Z,83.00
2023-04-21T04:32:23.725Z,83.00
2023-04-21T04:34:52.333Z,82.90
2023-04-21T04:37:22.087Z,82.80
2023-04-21T04:39:50.612Z,82.50
2023-04-21T04:42:20.256Z,82.80
2023-04-21T04:44:48.571Z,82.70
2023-04-21T04:47:16.654Z,82.30
2023-04-21T04:49:46.241Z,82.30
2023-04-21T04:52:14.291Z,82.40
2023-04-21T04:54:42.236Z,82.70
2023-04-21T04:57:10.354Z,82.30
2023-04-21T04:59:39.147Z,82.30
2023-04-21T05:02:09.049Z,82.30
2023-04-21T05:04:37.380Z,82.80
2023-04-21T05:07:07.882Z,82.80
2023-04-21T05:09:35.860Z,82.40
2023-04-21T05:12:03.926Z,82.20
2023-04-21T05:14:31.869Z,82.40
2023-04-21T05:16:59.806Z,82.40
2023-04-21T05:19:27.932Z,82.40
2023-04-21T05:22:00.904Z,82.40
2023-04-21T05:24:35.263Z,82.20
2023-04-21T05:27:03.921Z,82.40
2023-04-21T05:29:34.318Z,82.30
2023-04-21T05:32:02.481Z,82.50
2023-04-21T05:34:30.482Z,82.10
2023-04-21T05:36:58.772Z,81.80
2023-04-21T05:39:29.945Z,81.40
2023-04-21T05:41:58.452Z,81.20
2023-04-21T05:44:26.622Z,81.40
2023-04-21T05:46:54.646Z,81.40
2023-04-21T05:49:22.550Z,81.30
2023-04-21T05:51:50.592Z,81.20
2023-04-21T05:54:18.718Z,81.10
2023-04-21T05:56:48.711Z,81.20
2023-04-21T05:59:17.902Z,81.40
2023-04-21T06:01:46.208Z,80.90
2023-04-21T06:04:14.533Z,80.30
2023-04-21T06:06:44.416Z,80.40
2023-04-21T06:09:15.824Z,80.10
2023-04-21T06:11:43.894Z,79.60
2023-04-21T06:14:14.699Z,79.80
2023-04-21T06:16:43.010Z,79.70
2023-04-21T06:19:11.099Z,79.60
2023-04-21T06:21:39.004Z,79.70
2023-04-21T06:24:07.804Z,79.50
2023-04-21T06:26:35.745Z,79.70
2023-04-21T06:29:03.914Z,79.70
2023-04-21T06:31:33.328Z,79.50
2023-04-21T06:34:01.176Z,79.30
2023-04-21T06:36:29.273Z,79.30
2023-04-21T06:38:57.520Z,79.00
2023-04-21T06:41:25.442Z,78.90
2023-04-21T06:43:53.290Z,78.80
2023-04-21T06:46:21.130Z,78.20
2023-04-21T06:48:50.707Z,78.50
2023-04-21T06:51:18.622Z,77.70
2023-04-21T06:53:46.485Z,77.20
2023-04-21T06:56:14.365Z,77.20
2023-04-21T06:58:42.139Z,76.90
2023-04-21T07:01:10.241Z,77.60
2023-04-21T07:03:38.281Z,76.80
2023-04-21T07:06:07.817Z,77.30
2023-04-21T07:08:36.075Z,76.70
2023-04-21T07:11:03.941Z,77.10
2023-04-21T07:13:31.798Z,77.00
2023-04-21T07:15:59.899Z,77.20
2023-04-21T07:18:27.826Z,76.50
2023-04-21T07:20:55.716Z,76.20
2023-04-21T07:23:24.893Z,76.20
2023-04-21T07:25:52.755Z,76.20
2023-04-21T07:28:20.845Z,75.70
2023-04-21T07:30:48.908Z,75.70
2023-04-21T07:33:17.070Z,74.90
2023-04-21T07:35:44.986Z,73.80
2023-04-21T07:38:13.172Z,73.40
2023-04-21T07:40:42.588Z,73.00
2023-04-21T07:43:10.454Z,73.00
2023-04-21T07:45:38.745Z,72.40
2023-04-21T07:48:07.759Z,72.80
2023-04-21T07:50:36.283Z,72.10
2023-04-21T07:53:04.156Z,70.30
2023-04-21T07:55:32.504Z,70.20
2023-04-21T07:58:01.739Z,70.50
2023-04-21T08:00:29.796Z,69.50
2023-04-21T08:02:58.195Z,70.50
2023-04-21T08:05:30.125Z,70.20
2023-04-21T08:08:00.455Z,70.80
2023-04-21T08:10:28.418Z,70.30
2023-04-21T08:12:56.502Z,70.00
2023-04-21T08:15:25.999Z,69.20
2023-04-21T08:17:54.856Z,68.30
2023-04-21T08:20:23.161Z,67.50
2023-04-21T08:22:51.158Z,66.90
2023-04-21T08:25:19.306Z,67.10
2023-04-21T08:27:47.193Z,67.10
2023-04-21T08:30:15.840Z,65.60
2023-04-21T08:32:45.564Z,65.30
2023-04-21T08:35:13.879Z,65.60
2023-04-21T08:37:41.779Z,65.10
2023-04-21T08:40:10.618Z,63.90
2023-04-21T08:42:39.502Z,63.40
2023-04-21T08:45:08.592Z,63.10
2023-04-21T08:47:37.643Z,63.10
2023-04-21T08:50:12.781Z,62.50
2023-04-21T08:52:40.912Z,62.50
2023-04-21T08:55:11.201Z,62.10
2023-04-21T08:57:39.045Z,62.50
2023-04-21T09:00:08.494Z,61.80
2023-04-21T09:03:00.067Z,61.70
2023-04-21T09:05:32.574Z,61.80
2023-04-21T09:08:10.246Z,61.50
2023-04-21T09:10:44.793Z,61.10
2023-04-21T09:13:12.776Z,62.30
2023-04-21T09:15:41.598Z,62.00
2023-04-21T09:18:14.659Z,62.40
2023-04-21T09:20:45.784Z,61.60
2023-04-21T09:23:14.312Z,61.20
2023-04-21T09:25:43.489Z,61.50
2023-04-21T09:28:12.514Z,62.10
2023-04-21T09:30:42.047Z,61.70
2023-04-21T09:33:27.182Z,61.00
2023-04-21T09:36:02.713Z,61.10
2023-04-21T09:38:30.554Z,61.10
2023-04-21T09:40:59.285Z,61.50
2023-04-21T09:43:27.291Z,60.80
2023-04-21T09:45:56.813Z,61.90
2023-04-21T09:48:29.405Z,61.20
2023-04-21T09:53:35.485Z,61.50
2023-04-21T09:56:04.724Z,62.00
2023-04-21T09:58:40.393Z,60.90
2023-04-21T10:01:09.343Z,60.80
2023-04-21T10:03:40.636Z,60.00
2023-04-21T10:06:10.584Z,60.20
2023-04-21T10:08:38.904Z,60.50
2023-04-21T10:11:07.908Z,60.20
2023-04-21T10:13:37.826Z,59.80
2023-04-21T10:16:08.129Z,61.50
2023-04-21T10:18:38.443Z,60.60
2023-04-21T10:21:09.009Z,58.70
2023-04-21T10:23:44.395Z,57.90
2023-04-21T10:26:15.025Z,57.10
2023-04-21T10:28:44.389Z,56.90
2023-04-21T10:31:20.454Z,57.90
2023-04-21T10:34:13.632Z,56.60
2023-04-21T10:36:49.965Z,56.60
2023-04-21T10:39:29.678Z,56.00
2023-04-21T10:41:59.063Z,56.70
2023-04-21T10:44:30.945Z,56.60
2023-04-21T10:46:59.998Z,57.10
2023-04-21T10:49:30.229Z,56.50
2023-04-21T10:52:09.146Z,56.40
2023-04-21T10:54:45.841Z,57.00
2023-04-21T10:57:15.730Z,56.40
2023-04-21T10:59:44.276Z,55.70
2023-04-21T11:02:14.328Z,55.30
2023-04-21T11:04:47.795Z,56.10
2023-04-21T11:07:18.518Z,54.70
2023-04-21T11:09:48.739Z,55.50
2023-04-21T11:12:18.939Z,54.60
2023-04-21T11:14:48.365Z,54.60
2023-04-21T11:17:18.331Z,55.80
2023-04-21T11:19:47.278Z,56.00
2023-04-21T11:22:14.937Z,53.30
2023-04-21T11:24:45.151Z,52.10
2023-04-21T11:27:14.749Z,51.10
2023-04-21T11:29:42.747Z,50.60
2023-04-21T11:32:10.504Z,52.60
2023-04-21T11:34:39.106Z,52.30
2023-04-21T11:37:08.319Z,51.60
2023-04-21T11:39:36.002Z,51.80
2023-04-21T11:42:04.245Z,52.00
2023-04-21T11:44:34.480Z,53.50
2023-04-21T11:47:02.259Z,52.60
2023-04-21T11:49:30.738Z,51.30
2023-04-21T11:51:58.466Z,51.20
2023-04-21T11:54:26.131Z,50.80
2023-04-21T11:56:55.299Z,51.30
2023-04-21T11:59:25.758Z,52.00
2023-04-21T12:01:55.443Z,49.30
2023-04-21T12:04:23.709Z,49.10
2023-04-21T12:06:57.882Z,48.30
2023-04-21T12:09:25.649Z,49.30
2023-04-21T12:11:53.975Z,47.30
2023-04-21T12:14:22.609Z,46.90
2023-04-21T12:16:51.456Z,47.80
2023-04-21T12:19:35.422Z,47.50
2023-04-21T12:22:03.154Z,47.70
2023-04-21T12:24:30.906Z,48.10
2023-04-21T12:26:59.020Z,48.20
2023-04-21T12:29:26.672Z,49.00
2023-04-21T12:31:54.406Z,48.90
2023-04-21T12:34:22.144Z,49.90
2023-04-21T12:36:51.168Z,49.00
2023-04-21T12:39:19.464Z,49.30
2023-04-21T12:41:48.774Z,49.90
2023-04-21T12:44:16.722Z,49.60
2023-04-21T12:46:44.380Z,48.80
2023-04-21T12:49:12.046Z,50.30
2023-04-21T12:51:39.691Z,48.30
2023-04-21T12:54:08.753Z,49.70
2023-04-21T12:56:36.440Z,49.70
2023-04-21T12:59:04.128Z,51.00
2023-04-21T13:01:31.894Z,52.40
2023-04-21T13:04:00.458Z,51.00
2023-04-21T13:06:28.902Z,51.60
2023-04-21T13:08:56.721Z,52.50
2023-04-21T13:11:25.799Z,50.30
2023-04-21T13:13:53.780Z,52.30
2023-04-21T13:16:21.758Z,50.70
2023-04-21T13:18:49.498Z,51.90
2023-04-21T13:21:17.142Z,50.80
2023-04-21T13:23:44.850Z,51.80
2023-04-21T13:26:12.696Z,49.80
2023-04-21T13:28:41.712Z,49.40
2023-04-21T13:31:09.436Z,49.60
2023-04-21T13:33:37.246Z,49.40
2023-04-21T13:36:05.376Z,49.80
2023-04-21T13:38:33.212Z,49.50
2023-04-21T13:41:01.243Z,49.60
2023-04-21T13:43:28.995Z,48.30
2023-04-21T13:45:58.143Z,47.70
2023-04-21T13:48:26.596Z,48.50
2023-04-21T13:50:54.234Z,46.90
2023-04-21T13:53:22.027Z,48.40
2023-04-21T13:55:49.803Z,46.70
2023-04-21T13:58:17.988Z,45.70
2023-04-21T14:00:45.760Z,46.30
2023-04-21T14:03:15.098Z,46.20
2023-04-21T14:05:43.317Z,42.80
2023-04-21T14:08:11.738Z,42.30
2023-04-21T14:10:39.637Z,42.70
2023-04-21T14:13:07.345Z,41.80
2023-04-21T14:15:35.459Z,41.40
2023-04-21T14:18:03.259Z,42.10
2023-04-21T14:20:32.327Z,40.90
2023-04-21T14:23:00.112Z,41.80
2023-04-21T14:25:28.048Z,43.40
2023-04-21T14:27:55.877Z,42.30
2023-04-21T14:30:23.680Z,41.70
2023-04-21T14:32:51.484Z,42.40
2023-04-21T14:35:19.245Z,42.90
2023-04-21T14:37:48.524Z,41.50
2023-04-21T14:40:16.410Z,42.30
2023-04-21T14:42:44.144Z,41.30
2023-04-21T14:45:12.137Z,41.30
2023-04-21T14:47:39.890Z,41.10
2023-04-21T14:50:08.267Z,40.70
2023-04-21T14:52:36.060Z,41.20
2023-04-21T14:55:05.733Z,42.20
2023-04-21T14:57:33.497Z,41.60
2023-04-21T15:00:01.994Z,41.80
2023-04-21T15:02:30.067Z,41.00
2023-04-21T15:04:58.302Z,41.90
2023-04-21T15:07:26.066Z,41.30
2023-04-21T15:09:55.623Z,41.10
2023-04-21T15:12:24.921Z,41.30
2023-04-21T15:14:52.770Z,41.10
2023-04-21T15:17:20.604Z,41.20
2023-04-21T15:19:48.453Z,41.50
2023-04-21T15:22:16.120Z,40.90
2023-04-21T15:24:43.878Z,41.50
2023-04-21T15:27:11.707Z,42.00
2023-04-21T15:29:40.768Z,41.40
2023-04-21T15:32:08.678Z,42.60
2023-04-21T15:34:36.758Z,42.60
2023-04-21T15:37:04.523Z,42.30
2023-04-21T15:39:32.590Z,43.40
2023-04-21T15:42:01.472Z,44.60
2023-04-21T15:44:29.140Z,45.50
2023-04-21T15:46:58.813Z,46.80
2023-04-21T15:49:26.675Z,48.10
2023-04-21T15:51:54.486Z,48.80
2023-04-21T15:54:22.651Z,49.90
2023-04-21T15:56:50.496Z,50.40
2023-04-21T15:59:18.188Z,51.10
2023-04-21T16:01:46.054Z,50.60
2023-04-21T16:04:16.279Z,50.80
2023-04-21T16:06:44.123Z,51.30
2023-04-21T16:09:12.030Z,51.20
2023-04-21T16:11:40.206Z,51.00
2023-04-21T16:14:07.879Z,51.50
2023-04-21T16:16:36.870Z,51.70
2023-04-21T16:19:04.975Z,52.30
2023-04-21T16:21:34.852Z,52.60
2023-04-21T16:24:05.315Z,53.30
2023-04-21T16:26:35.713Z,53.60
2023-04-21T16:29:03.793Z,53.40
2023-04-21T16:31:31.848Z,54.10
2023-04-21T16:34:00.630Z,53.00
2023-04-21T16:36:29.531Z,53.30
2023-04-21T16:38:58.655Z,53.30
2023-04-21T16:41:26.512Z,54.30
2023-04-21T16:43:54.302Z,53.70
2023-04-21T16:46:22.318Z,53.60
2023-04-21T16:48:50.540Z,53.60
2023-04-21T16:51:18.508Z,54.10
2023-04-21T16:53:46.329Z,54.40
2023-04-21T16:56:15.853Z,53.00
2023-04-21T16:58:43.790Z,53.00
2023-04-21T17:01:11.878Z,53.80
2023-04-21T17:03:39.959Z,53.50
2023-04-21T17:06:10.769Z,53.70
2023-04-21T17:08:38.615Z,54.40
2023-04-21T17:11:06.429Z,54.80
2023-04-21T17:13:38.837Z,53.40
2023-04-21T17:16:07.901Z,53.80
2023-04-21T17:18:36.437Z,53.80
2023-04-21T17:21:06.012Z,54.40
2023-04-21T17:23:33.890Z,54.80
2023-04-21T17:26:01.626Z,55.20
2023-04-21T17:28:29.529Z,56.20
2023-04-21T17:31:13.884Z,56.00
2023-04-21T17:33:43.729Z,56.00
2023-04-21T17:36:12.431Z,57.60
2023-04-21T17:38:41.860Z,56.00
2023-04-21T17:41:09.534Z,56.90
2023-04-21T17:43:37.446Z,56.20
2023-04-21T17:46:06.913Z,57.40
2023-04-21T17:48:34.841Z,56.90
2023-04-21T17:51:03.831Z,57.70
2023-04-21T17:53:31.990Z,58.10
2023-04-21T17:55:59.723Z,58.40
2023-04-21T17:58:27.608Z,59.00
2023-04-21T18:00:55.491Z,59.00
2023-04-21T18:03:24.822Z,58.10
2023-04-21T18:05:52.946Z,58.70
2023-04-21T18:08:20.743Z,59.80
2023-04-21T18:10:48.462Z,60.30
2023-04-21T18:13:16.296Z,60.00
2023-04-21T18:15:43.968Z,60.30
2023-04-21T18:18:12.003Z,59.40
2023-04-21T18:20:41.390Z,59.60
2023-04-21T18:23:09.382Z,60.30
2023-04-21T18:25:42.722Z,61.00
2023-04-21T18:28:13.164Z,60.70
2023-04-21T18:30:44.368Z,59.60
2023-04-21T18:33:12.426Z,60.40
2023-04-21T18:35:42.679Z,61.10
2023-04-21T18:38:12.041Z,61.40
2023-04-21T18:40:40.652Z,70.90
2023-04-21T18:43:09.674Z,72.70
2023-04-21T18:45:38.710Z,76.40
2023-04-21T18:48:08.254Z,78.80
2023-04-21T18:50:40.335Z,81.30
2023-04-21T18:53:10.356Z,83.40
2023-04-21T18:55:38.513Z,83.10
2023-04-21T18:58:06.923Z,85.20
2023-04-21T19:00:37.857Z,85.90
2023-04-21T19:03:06.729Z,87.10
2023-04-21T19:05:35.874Z,87.50
2023-04-21T19:08:04.199Z,87.30
2023-04-21T19:10:35.465Z,87.70
2023-04-21T19:13:03.600Z,88.20
2023-04-21T19:15:31.580Z,88.40
2023-04-21T19:17:59.874Z,88.20
2023-04-21T19:20:28.031Z,88.20
2023-04-21T19:22:56.160Z,88.50
2023-04-21T19:25:24.209Z,88.60
2023-04-21T19:27:53.655Z,88.60
2023-04-21T19:30:21.871Z,88.50
2023-04-21T19:32:50.269Z,88.70
2023-04-21T19:35:19.541Z,88.80
2023-04-21T19:37:47.864Z,88.30
2023-04-21T19:40:15.839Z,88.50
2023-04-21T19:42:43.957Z,88.60
2023-04-21T19:45:13.698Z,89.00
2023-04-21T19:47:42.132Z,88.60
2023-04-21T19:50:11.257Z,89.00
2023-04-21T19:52:39.294Z,88.80
2023-04-21T19:55:07.991Z,88.70
2023-04-21T19:57:37.032Z,89.10
2023-04-21T20:00:08.854Z,88.40
2023-04-21T20:02:38.251Z,88.10
2023-04-21T20:05:08.024Z,88.70
2023-04-21T20:07:36.503Z,88.90
2023-04-21T20:10:04.988Z,89.40
2023-04-21T20:12:32.919Z,89.30
2023-04-21T20:15:01.321Z,89.20
2023-04-21T20:17:29.345Z,89.30
2023-04-21T20:19:58.833Z,89.10
2023-04-21T20:22:26.842Z,89.30
2023-04-21T20:24:57.857Z,89.50
2023-04-21T20:27:26.295Z,89.60
2023-04-21T20:29:54.284Z,89.70
2023-04-21T20:32:22.387Z,89.70
2023-04-21T20:34:51.837Z,90.20
2023-04-21T20:37:23.052Z,90.40
2023-04-21T20:39:52.784Z,89.20
2023-04-21T20:42:21.882Z,88.90
2023-04-21T20:44:50.224Z,89.50
2023-04-21T20:47:19.452Z,88.70
2023-04-21T20:49:48.865Z,88.40
2023-04-21T20:52:17.157Z,88.70
2023-04-21T20:54:46.614Z,88.60
2023-04-21T20:57:14.857Z,88.20
2023-04-21T20:59:42.822Z,88.60
2023-04-21T21:02:11.103Z,87.80
2023-04-21T21:04:39.285Z,88.10
2023-04-21T21:07:07.418Z,88.60
2023-04-21T21:09:35.659Z,88.60
2023-04-21T21:12:05.578Z,88.40
2023-04-21T21:14:33.673Z,88.20
2023-04-21T21:17:02.864Z,88.60
2023-04-21T21:19:31.336Z,88.50
2023-04-21T21:21:59.190Z,88.20
2023-04-21T21:24:28.783Z,87.10
2023-04-21T21:26:57.500Z,86.30
2023-04-21T21:29:26.882Z,85.80
2023-04-21T21:31:55.085Z,85.70
2023-04-21T21:34:23.070Z,86.30
2023-04-21T21:36:51.098Z,86.70
2023-04-21T21:39:19.433Z,86.70
2023-04-21T21:41:47.346Z,85.10
2023-04-21T21:44:17.368Z,85.50
2023-04-21T21:46:49.670Z,86.30
2023-04-21T21:49:17.745Z,86.90
2023-04-21T21:51:45.672Z,87.20
2023-04-21T21:54:13.871Z,86.90
2023-04-21T21:56:42.130Z,87.50
2023-04-21T21:59:10.088Z,88.10
2023-04-21T22:01:38.250Z,88.10
2023-04-21T22:04:07.862Z,88.50
2023-04-21T22:06:36.112Z,88.70
2023-04-21T22:09:05.178Z,88.70
2023-04-21T22:11:33.408Z,89.00
2023-04-21T22:14:11.330Z,89.10
2023-04-21T22:16:50.488Z,89.10
2023-04-21T22:19:20.877Z,89.40
2023-04-21T22:21:49.215Z,89.20
2023-04-21T22:24:17.436Z,89.20
2023-04-21T22:26:45.707Z,89.30
2023-04-21T22:29:13.984Z,89.60
2023-04-21T22:31:42.211Z,89.60
2023-04-21T22:34:10.308Z,89.40
2023-04-21T22:36:39.904Z,89.40
2023-04-21T22:39:08.373Z,89.60
2023-04-21T22:41:36.289Z,89.40
2023-04-21T22:44:04.496Z,89.60
2023-04-21T22:46:33.867Z,89.70
2023-04-21T22:49:03.809Z,89.90
2023-04-21T22:51:32.605Z,89.90
2023-04-21T22:54:02.300Z,90.10
2023-04-21T22:56:31.415Z,89.90
2023-04-21T22:58:59.765Z,89.60
2023-04-21T23:01:28.155Z,89.50
2023-04-21T23:03:56.372Z,89.40
2023-04-21T23:06:24.553Z,89.60
2023-04-21T23:08:53.092Z,89.80
2023-04-21T23:11:22.744Z,89.90
2023-04-21T23:13:50.854Z,90.20
2023-04-21T23:16:18.794Z,90.50
2023-04-21T23:18:46.752Z,90.60
2023-04-21T23:21:14.784Z,90.50
2023-04-21T23:23:42.743Z,90.40
2023-04-21T23:26:11.040Z,90.10
2023-04-21T23:28:41.095Z,90.30
2023-04-21T23:31:09.269Z,90.50
2023-04-21T23:33:37.342Z,90.80
2023-04-21T23:36:05.478Z,90.70
2023-04-21T23:38:33.405Z,90.70
2023-04-21T23:41:01.393Z,90.70
2023-04-21T23:43:29.503Z,90.50
2023-04-21T23:45:58.850Z,90.70
2023-04-21T23:48:27.262Z,90.70
2023-04-21T23:50:55.357Z,90.90
2023-04-21T23:53:23.755Z,90.90
2023-04-21T23:55:52.153Z,90.90
2023-04-21T23:58:20.164Z,91.10
